sensor_id;sensor_type;location;lat;lon;timestamp;P1;durP1;ratioP1;P2;durP2;ratioP2
29384;SDS011;16367;48.736;9.218;2022-11-20T00:00:41;7.75;;;3.50;;
29384;SDS011;16367;48.736;9.218;2022-11-20T00:02:44;9.43;;;3.88;;
29384;SDS011;16367;48.736;9.218;2022-11-20T00:04:47;8.48;;;3.90;;
29384;SDS011;16367;48.736;9.218;2022-11-20T00:06:49;7.22;;;3.60;;
29384;SDS011;16367;48.736;9.218;2022-11-20T00:08:53;8.02;;;3.72;;
29384;SDS011;16367;48.736;9.218;2022-11-20T00:10:57;8.52;;;4.28;;
29384;SDS011;16367;48.736;9.218;2022-11-20T00:13:05;7.03;;;3.30;;
29384;SDS011;16367;48.736;9.218;2022-11-20T00:15:09;9.45;;;4.22;;
29384;SDS011;16367;48.736;9.218;2022-11-20T00:17:12;7.68;;;3.95;;
29384;SDS011;16367;48.736;9.218;2022-11-20T00:19:15;10.18;;;4.32;;
29384;SDS011;16367;48.736;9.218;2022-11-20T00:21:19;7.13;;;3.65;;
29384;SDS011;16367;48.736;9.218;2022-11-20T00:23:22;8.40;;;3.97;;
29384;SDS011;16367;48.736;9.218;2022-11-20T00:25:25;8.57;;;3.40;;
29384;SDS011;16367;48.736;9.218;2022-11-20T00:27:28;8.85;;;3.70;;
29384;SDS011;16367;48.736;9.218;2022-11-20T00:29:32;7.78;;;3.80;;
29384;SDS011;16367;48.736;9.218;2022-11-20T00:31:35;7.90;;;3.13;;
29384;SDS011;16367;48.736;9.218;2022-11-20T00:33:38;8.98;;;4.03;;
29384;SDS011;16367;48.736;9.218;2022-11-20T00:35:41;9.30;;;3.45;;
29384;SDS011;16367;48.736;9.218;2022-11-20T00:37:43;8.52;;;3.28;;
29384;SDS011;16367;48.736;9.218;2022-11-20T00:39:46;6.68;;;3.17;;
29384;SDS011;16367;48.736;9.218;2022-11-20T00:41:49;6.97;;;3.00;;
29384;SDS011;16367;48.736;9.218;2022-11-20T00:43:52;6.82;;;3.35;;
29384;SDS011;16367;48.736;9.218;2022-11-20T00:45:57;7.63;;;3.42;;
29384;SDS011;16367;48.736;9.218;2022-11-20T00:48:00;8.38;;;3.20;;
29384;SDS011;16367;48.736;9.218;2022-11-20T00:50:03;6.88;;;3.30;;
29384;SDS011;16367;48.736;9.218;2022-11-20T00:52:06;7.82;;;3.53;;
29384;SDS011;16367;48.736;9.218;2022-11-20T00:54:09;6.88;;;3.08;;
29384;SDS011;16367;48.736;9.218;2022-11-20T00:56:13;6.32;;;2.95;;
29384;SDS011;16367;48.736;9.218;2022-11-20T00:58:17;8.00;;;3.45;;
29384;SDS011;16367;48.736;9.218;2022-11-20T01:00:19;8.07;;;3.30;;
29384;SDS011;16367;48.736;9.218;2022-11-20T01:02:23;8.23;;;3.70;;
29384;SDS011;16367;48.736;9.218;2022-11-20T01:04:26;6.68;;;3.17;;
29384;SDS011;16367;48.736;9.218;2022-11-20T01:06:29;7.90;;;3.20;;
29384;SDS011;16367;48.736;9.218;2022-11-20T01:08:35;6.70;;;3.15;;
29384;SDS011;16367;48.736;9.218;2022-11-20T01:10:39;5.90;;;2.85;;
29384;SDS011;16367;48.736;9.218;2022-11-20T01:12:42;6.40;;;2.75;;
29384;SDS011;16367;48.736;9.218;2022-11-20T01:14:44;8.73;;;2.88;;
29384;SDS011;16367;48.736;9.218;2022-11-20T01:16:48;5.28;;;2.40;;
29384;SDS011;16367;48.736;9.218;2022-11-20T01:18:54;6.07;;;3.17;;
29384;SDS011;16367;48.736;9.218;2022-11-20T01:21:02;6.68;;;2.97;;
29384;SDS011;16367;48.736;9.218;2022-11-20T01:23:06;6.47;;;2.83;;
29384;SDS011;16367;48.736;9.218;2022-11-20T01:25:08;6.13;;;2.75;;
29384;SDS011;16367;48.736;9.218;2022-11-20T01:27:11;6.07;;;2.35;;
29384;SDS011;16367;48.736;9.218;2022-11-20T01:29:14;5.68;;;2.47;;
29384;SDS011;16367;48.736;9.218;2022-11-20T01:31:20;8.43;;;3.10;;
29384;SDS011;16367;48.736;9.218;2022-11-20T01:33:24;5.70;;;2.95;;
29384;SDS011;16367;48.736;9.218;2022-11-20T01:35:28;6.20;;;2.47;;
29384;SDS011;16367;48.736;9.218;2022-11-20T01:37:31;5.78;;;2.20;;
29384;SDS011;16367;48.736;9.218;2022-11-20T01:39:34;5.13;;;2.30;;
29384;SDS011;16367;48.736;9.218;2022-11-20T01:41:36;5.65;;;2.60;;
29384;SDS011;16367;48.736;9.218;2022-11-20T01:43:57;5.18;;;2.50;;
29384;SDS011;16367;48.736;9.218;2022-11-20T01:46:04;5.82;;;2.72;;
29384;SDS011;16367;48.736;9.218;2022-11-20T01:48:15;6.47;;;2.30;;
29384;SDS011;16367;48.736;9.218;2022-11-20T01:50:21;7.00;;;2.63;;
29384;SDS011;16367;48.736;9.218;2022-11-20T01:52:29;6.20;;;2.30;;
29384;SDS011;16367;48.736;9.218;2022-11-20T01:54:35;6.57;;;2.60;;
29384;SDS011;16367;48.736;9.218;2022-11-20T01:58:47;7.25;;;2.92;;
29384;SDS011;16367;48.736;9.218;2022-11-20T02:00:53;5.63;;;2.72;;
29384;SDS011;16367;48.736;9.218;2022-11-20T02:02:57;6.30;;;2.53;;
29384;SDS011;16367;48.736;9.218;2022-11-20T02:05:02;6.18;;;2.75;;
29384;SDS011;16367;48.736;9.218;2022-11-20T02:07:11;9.15;;;2.78;;
29384;SDS011;16367;48.736;9.218;2022-11-20T02:09:17;6.75;;;2.30;;
29384;SDS011;16367;48.736;9.218;2022-11-20T02:11:20;8.27;;;2.65;;
29384;SDS011;16367;48.736;9.218;2022-11-20T02:13:23;5.97;;;2.60;;
29384;SDS011;16367;48.736;9.218;2022-11-20T02:15:43;7.22;;;2.40;;
29384;SDS011;16367;48.736;9.218;2022-11-20T02:17:46;6.60;;;2.95;;
29384;SDS011;16367;48.736;9.218;2022-11-20T02:19:50;5.78;;;2.60;;
29384;SDS011;16367;48.736;9.218;2022-11-20T02:21:56;5.97;;;2.60;;
29384;SDS011;16367;48.736;9.218;2022-11-20T02:24:06;7.53;;;2.78;;
29384;SDS011;16367;48.736;9.218;2022-11-20T02:26:12;6.40;;;2.38;;
29384;SDS011;16367;48.736;9.218;2022-11-20T02:28:17;5.63;;;2.30;;
29384;SDS011;16367;48.736;9.218;2022-11-20T02:30:21;6.80;;;3.40;;
29384;SDS011;16367;48.736;9.218;2022-11-20T02:32:25;5.10;;;2.45;;
29384;SDS011;16367;48.736;9.218;2022-11-20T02:34:29;6.63;;;2.95;;
29384;SDS011;16367;48.736;9.218;2022-11-20T02:36:32;7.55;;;3.05;;
29384;SDS011;16367;48.736;9.218;2022-11-20T02:38:36;5.65;;;2.60;;
29384;SDS011;16367;48.736;9.218;2022-11-20T02:40:41;7.10;;;2.88;;
29384;SDS011;16367;48.736;9.218;2022-11-20T02:42:44;5.55;;;2.78;;
29384;SDS011;16367;48.736;9.218;2022-11-20T02:44:47;7.88;;;3.72;;
29384;SDS011;16367;48.736;9.218;2022-11-20T02:46:49;7.13;;;2.60;;
29384;SDS011;16367;48.736;9.218;2022-11-20T02:48:52;7.43;;;3.20;;
29384;SDS011;16367;48.736;9.218;2022-11-20T02:50:55;7.28;;;3.00;;
29384;SDS011;16367;48.736;9.218;2022-11-20T02:52:57;5.95;;;2.92;;
29384;SDS011;16367;48.736;9.218;2022-11-20T02:55:00;6.60;;;3.53;;
29384;SDS011;16367;48.736;9.218;2022-11-20T02:57:04;6.38;;;3.22;;
29384;SDS011;16367;48.736;9.218;2022-11-20T02:59:07;7.72;;;3.28;;
29384;SDS011;16367;48.736;9.218;2022-11-20T03:01:10;6.65;;;2.97;;
29384;SDS011;16367;48.736;9.218;2022-11-20T03:03:12;7.03;;;3.22;;
29384;SDS011;16367;48.736;9.218;2022-11-20T03:05:14;6.55;;;2.95;;
29384;SDS011;16367;48.736;9.218;2022-11-20T03:07:17;7.47;;;3.55;;
29384;SDS011;16367;48.736;9.218;2022-11-20T03:09:20;7.45;;;3.30;;
29384;SDS011;16367;48.736;9.218;2022-11-20T03:11:23;7.43;;;3.10;;
29384;SDS011;16367;48.736;9.218;2022-11-20T03:13:27;7.55;;;3.47;;
29384;SDS011;16367;48.736;9.218;2022-11-20T03:15:30;7.50;;;3.70;;
29384;SDS011;16367;48.736;9.218;2022-11-20T03:17:33;7.28;;;3.63;;
29384;SDS011;16367;48.736;9.218;2022-11-20T03:19:36;8.32;;;3.20;;
29384;SDS011;16367;48.736;9.218;2022-11-20T03:21:38;8.73;;;3.60;;
29384;SDS011;16367;48.736;9.218;2022-11-20T03:23:41;6.45;;;3.17;;
29384;SDS011;16367;48.736;9.218;2022-11-20T03:25:44;7.20;;;3.58;;
29384;SDS011;16367;48.736;9.218;2022-11-20T03:27:47;8.90;;;3.53;;
29384;SDS011;16367;48.736;9.218;2022-11-20T03:29:51;6.85;;;3.20;;
29384;SDS011;16367;48.736;9.218;2022-11-20T03:31:54;7.20;;;3.50;;
29384;SDS011;16367;48.736;9.218;2022-11-20T03:33:57;8.88;;;3.47;;
29384;SDS011;16367;48.736;9.218;2022-11-20T03:36:01;7.80;;;3.50;;
29384;SDS011;16367;48.736;9.218;2022-11-20T03:38:05;7.75;;;3.22;;
29384;SDS011;16367;48.736;9.218;2022-11-20T03:40:08;10.80;;;4.70;;
29384;SDS011;16367;48.736;9.218;2022-11-20T03:42:11;8.55;;;3.55;;
29384;SDS011;16367;48.736;9.218;2022-11-20T03:44:28;7.25;;;3.42;;
29384;SDS011;16367;48.736;9.218;2022-11-20T03:46:32;7.97;;;3.10;;
29384;SDS011;16367;48.736;9.218;2022-11-20T03:48:35;8.50;;;3.40;;
29384;SDS011;16367;48.736;9.218;2022-11-20T03:50:38;9.30;;;3.70;;
29384;SDS011;16367;48.736;9.218;2022-11-20T03:52:41;7.50;;;3.25;;
29384;SDS011;16367;48.736;9.218;2022-11-20T03:54:43;7.95;;;3.75;;
29384;SDS011;16367;48.736;9.218;2022-11-20T03:56:46;7.50;;;3.53;;
29384;SDS011;16367;48.736;9.218;2022-11-20T03:58:49;10.98;;;3.42;;
29384;SDS011;16367;48.736;9.218;2022-11-20T04:00:52;7.75;;;3.22;;
29384;SDS011;16367;48.736;9.218;2022-11-20T04:02:58;7.78;;;3.75;;
29384;SDS011;16367;48.736;9.218;2022-11-20T04:05:01;8.65;;;3.88;;
29384;SDS011;16367;48.736;9.218;2022-11-20T04:07:04;9.65;;;3.63;;
29384;SDS011;16367;48.736;9.218;2022-11-20T04:09:07;9.65;;;3.65;;
29384;SDS011;16367;48.736;9.218;2022-11-20T04:11:10;6.93;;;3.35;;
29384;SDS011;16367;48.736;9.218;2022-11-20T04:13:14;8.23;;;3.47;;
29384;SDS011;16367;48.736;9.218;2022-11-20T04:15:17;7.97;;;3.30;;
29384;SDS011;16367;48.736;9.218;2022-11-20T04:17:20;9.95;;;3.45;;
29384;SDS011;16367;48.736;9.218;2022-11-20T04:19:24;8.30;;;3.67;;
29384;SDS011;16367;48.736;9.218;2022-11-20T04:21:27;7.88;;;3.55;;
29384;SDS011;16367;48.736;9.218;2022-11-20T04:23:30;7.78;;;3.13;;
29384;SDS011;16367;48.736;9.218;2022-11-20T04:25:34;7.43;;;3.45;;
29384;SDS011;16367;48.736;9.218;2022-11-20T04:27:36;6.68;;;2.67;;
29384;SDS011;16367;48.736;9.218;2022-11-20T04:29:39;6.60;;;3.20;;
29384;SDS011;16367;48.736;9.218;2022-11-20T04:31:42;6.97;;;3.08;;
29384;SDS011;16367;48.736;9.218;2022-11-20T04:33:45;6.57;;;3.20;;
29384;SDS011;16367;48.736;9.218;2022-11-20T04:35:49;8.38;;;3.28;;
29384;SDS011;16367;48.736;9.218;2022-11-20T04:37:52;6.47;;;3.10;;
29384;SDS011;16367;48.736;9.218;2022-11-20T04:39:54;6.50;;;2.97;;
29384;SDS011;16367;48.736;9.218;2022-11-20T04:41:57;7.43;;;3.47;;
29384;SDS011;16367;48.736;9.218;2022-11-20T04:44:14;6.45;;;3.40;;
29384;SDS011;16367;48.736;9.218;2022-11-20T04:46:17;8.80;;;3.35;;
29384;SDS011;16367;48.736;9.218;2022-11-20T04:48:20;6.18;;;3.10;;
29384;SDS011;16367;48.736;9.218;2022-11-20T04:50:26;8.68;;;3.83;;
29384;SDS011;16367;48.736;9.218;2022-11-20T04:52:30;7.20;;;3.72;;
29384;SDS011;16367;48.736;9.218;2022-11-20T04:54:33;8.23;;;3.30;;
29384;SDS011;16367;48.736;9.218;2022-11-20T04:56:36;7.43;;;3.08;;
29384;SDS011;16367;48.736;9.218;2022-11-20T04:58:39;6.78;;;3.67;;
29384;SDS011;16367;48.736;9.218;2022-11-20T05:00:42;6.55;;;3.35;;
29384;SDS011;16367;48.736;9.218;2022-11-20T05:02:44;8.05;;;4.10;;
29384;SDS011;16367;48.736;9.218;2022-11-20T05:04:47;6.32;;;3.55;;
29384;SDS011;16367;48.736;9.218;2022-11-20T05:06:50;8.05;;;3.78;;
29384;SDS011;16367;48.736;9.218;2022-11-20T05:08:54;6.93;;;3.42;;
29384;SDS011;16367;48.736;9.218;2022-11-20T05:10:59;6.45;;;2.75;;
29384;SDS011;16367;48.736;9.218;2022-11-20T05:13:03;7.32;;;3.10;;
29384;SDS011;16367;48.736;9.218;2022-11-20T05:15:06;7.20;;;3.30;;
29384;SDS011;16367;48.736;9.218;2022-11-20T05:17:09;7.00;;;3.67;;
29384;SDS011;16367;48.736;9.218;2022-11-20T05:19:12;7.35;;;2.85;;
29384;SDS011;16367;48.736;9.218;2022-11-20T05:21:16;7.47;;;2.80;;
29384;SDS011;16367;48.736;9.218;2022-11-20T05:23:19;7.85;;;3.10;;
29384;SDS011;16367;48.736;9.218;2022-11-20T05:25:23;8.48;;;4.18;;
29384;SDS011;16367;48.736;9.218;2022-11-20T05:27:27;9.15;;;3.03;;
29384;SDS011;16367;48.736;9.218;2022-11-20T05:29:29;8.90;;;3.15;;
29384;SDS011;16367;48.736;9.218;2022-11-20T05:31:32;8.57;;;3.25;;
29384;SDS011;16367;48.736;9.218;2022-11-20T05:33:35;6.88;;;2.60;;
29384;SDS011;16367;48.736;9.218;2022-11-20T05:35:38;7.07;;;2.88;;
29384;SDS011;16367;48.736;9.218;2022-11-20T05:37:41;6.93;;;2.80;;
29384;SDS011;16367;48.736;9.218;2022-11-20T05:39:44;6.10;;;1.98;;
29384;SDS011;16367;48.736;9.218;2022-11-20T05:41:48;5.78;;;2.53;;
29384;SDS011;16367;48.736;9.218;2022-11-20T05:44:11;4.90;;;2.17;;
29384;SDS011;16367;48.736;9.218;2022-11-20T05:46:14;5.28;;;2.67;;
29384;SDS011;16367;48.736;9.218;2022-11-20T05:48:25;5.78;;;2.30;;
29384;SDS011;16367;48.736;9.218;2022-11-20T05:50:27;5.95;;;2.80;;
29384;SDS011;16367;48.736;9.218;2022-11-20T05:52:30;7.10;;;2.58;;
29384;SDS011;16367;48.736;9.218;2022-11-20T05:54:33;9.18;;;2.60;;
29384;SDS011;16367;48.736;9.218;2022-11-20T05:56:36;4.65;;;2.10;;
29384;SDS011;16367;48.736;9.218;2022-11-20T05:58:40;6.45;;;3.08;;
29384;SDS011;16367;48.736;9.218;2022-11-20T06:00:42;7.53;;;2.60;;
29384;SDS011;16367;48.736;9.218;2022-11-20T06:02:45;5.80;;;2.50;;
29384;SDS011;16367;48.736;9.218;2022-11-20T06:04:48;5.00;;;2.42;;
29384;SDS011;16367;48.736;9.218;2022-11-20T06:06:51;5.68;;;2.17;;
29384;SDS011;16367;48.736;9.218;2022-11-20T06:08:54;5.15;;;2.25;;
29384;SDS011;16367;48.736;9.218;2022-11-20T06:10:57;5.18;;;2.25;;
29384;SDS011;16367;48.736;9.218;2022-11-20T06:13:00;7.50;;;2.60;;
29384;SDS011;16367;48.736;9.218;2022-11-20T06:15:04;5.78;;;2.55;;
29384;SDS011;16367;48.736;9.218;2022-11-20T06:17:08;6.72;;;2.75;;
29384;SDS011;16367;48.736;9.218;2022-11-20T06:19:10;5.30;;;2.60;;
29384;SDS011;16367;48.736;9.218;2022-11-20T06:21:14;6.25;;;2.42;;
29384;SDS011;16367;48.736;9.218;2022-11-20T06:23:18;6.57;;;2.55;;
29384;SDS011;16367;48.736;9.218;2022-11-20T06:25:21;5.38;;;2.70;;
29384;SDS011;16367;48.736;9.218;2022-11-20T06:27:24;6.15;;;2.72;;
29384;SDS011;16367;48.736;9.218;2022-11-20T06:29:26;5.47;;;2.55;;
29384;SDS011;16367;48.736;9.218;2022-11-20T06:31:35;6.88;;;2.60;;
29384;SDS011;16367;48.736;9.218;2022-11-20T06:33:39;7.78;;;2.55;;
29384;SDS011;16367;48.736;9.218;2022-11-20T06:35:42;6.10;;;2.42;;
29384;SDS011;16367;48.736;9.218;2022-11-20T06:37:45;7.25;;;2.00;;
29384;SDS011;16367;48.736;9.218;2022-11-20T06:39:48;5.60;;;2.35;;
29384;SDS011;16367;48.736;9.218;2022-11-20T06:41:53;6.35;;;2.33;;
29384;SDS011;16367;48.736;9.218;2022-11-20T06:43:59;5.15;;;2.30;;
29384;SDS011;16367;48.736;9.218;2022-11-20T06:46:03;8.60;;;3.25;;
29384;SDS011;16367;48.736;9.218;2022-11-20T06:48:07;6.22;;;2.90;;
29384;SDS011;16367;48.736;9.218;2022-11-20T06:50:10;8.75;;;2.53;;
29384;SDS011;16367;48.736;9.218;2022-11-20T06:52:13;7.40;;;2.72;;
29384;SDS011;16367;48.736;9.218;2022-11-20T06:54:16;5.82;;;2.58;;
29384;SDS011;16367;48.736;9.218;2022-11-20T06:56:19;6.60;;;2.60;;
29384;SDS011;16367;48.736;9.218;2022-11-20T06:58:22;6.55;;;3.03;;
29384;SDS011;16367;48.736;9.218;2022-11-20T07:00:25;6.22;;;2.42;;
29384;SDS011;16367;48.736;9.218;2022-11-20T07:02:28;7.05;;;2.70;;
29384;SDS011;16367;48.736;9.218;2022-11-20T07:04:32;5.97;;;2.53;;
29384;SDS011;16367;48.736;9.218;2022-11-20T07:06:35;6.40;;;2.67;;
29384;SDS011;16367;48.736;9.218;2022-11-20T07:08:37;6.75;;;3.33;;
29384;SDS011;16367;48.736;9.218;2022-11-20T07:10:40;6.15;;;2.55;;
29384;SDS011;16367;48.736;9.218;2022-11-20T07:12:48;6.13;;;2.70;;
29384;SDS011;16367;48.736;9.218;2022-11-20T07:14:51;6.72;;;2.35;;
29384;SDS011;16367;48.736;9.218;2022-11-20T07:16:54;7.80;;;2.67;;
29384;SDS011;16367;48.736;9.218;2022-11-20T07:18:57;7.03;;;2.90;;
29384;SDS011;16367;48.736;9.218;2022-11-20T07:21:01;6.25;;;2.50;;
29384;SDS011;16367;48.736;9.218;2022-11-20T07:23:05;6.45;;;3.03;;
29384;SDS011;16367;48.736;9.218;2022-11-20T07:25:08;6.88;;;3.00;;
29384;SDS011;16367;48.736;9.218;2022-11-20T07:27:11;6.43;;;2.67;;
29384;SDS011;16367;48.736;9.218;2022-11-20T07:29:14;5.00;;;2.60;;
29384;SDS011;16367;48.736;9.218;2022-11-20T07:31:17;6.30;;;2.60;;
29384;SDS011;16367;48.736;9.218;2022-11-20T07:33:20;5.32;;;2.22;;
29384;SDS011;16367;48.736;9.218;2022-11-20T07:35:23;6.00;;;2.40;;
29384;SDS011;16367;48.736;9.218;2022-11-20T07:37:28;5.35;;;2.40;;
29384;SDS011;16367;48.736;9.218;2022-11-20T07:39:31;6.03;;;2.53;;
29384;SDS011;16367;48.736;9.218;2022-11-20T07:41:33;4.82;;;2.17;;
29384;SDS011;16367;48.736;9.218;2022-11-20T07:43:36;5.70;;;2.33;;
29384;SDS011;16367;48.736;9.218;2022-11-20T07:45:42;5.70;;;3.08;;
29384;SDS011;16367;48.736;9.218;2022-11-20T07:47:44;7.35;;;2.30;;
29384;SDS011;16367;48.736;9.218;2022-11-20T07:49:47;4.80;;;2.33;;
29384;SDS011;16367;48.736;9.218;2022-11-20T07:51:50;8.65;;;2.63;;
29384;SDS011;16367;48.736;9.218;2022-11-20T07:53:56;4.88;;;2.10;;
29384;SDS011;16367;48.736;9.218;2022-11-20T07:55:59;5.05;;;2.20;;
29384;SDS011;16367;48.736;9.218;2022-11-20T07:58:02;7.57;;;2.90;;
29384;SDS011;16367;48.736;9.218;2022-11-20T08:00:05;5.38;;;1.88;;
29384;SDS011;16367;48.736;9.218;2022-11-20T08:02:10;8.00;;;2.20;;
29384;SDS011;16367;48.736;9.218;2022-11-20T08:04:13;5.32;;;2.10;;
29384;SDS011;16367;48.736;9.218;2022-11-20T08:06:17;7.07;;;2.25;;
29384;SDS011;16367;48.736;9.218;2022-11-20T08:08:21;5.15;;;2.00;;
29384;SDS011;16367;48.736;9.218;2022-11-20T08:10:25;5.30;;;2.30;;
29384;SDS011;16367;48.736;9.218;2022-11-20T08:12:28;6.25;;;2.47;;
29384;SDS011;16367;48.736;9.218;2022-11-20T08:14:56;4.60;;;2.17;;
29384;SDS011;16367;48.736;9.218;2022-11-20T08:17:00;5.75;;;2.25;;
29384;SDS011;16367;48.736;9.218;2022-11-20T08:19:02;4.53;;;2.28;;
29384;SDS011;16367;48.736;9.218;2022-11-20T08:21:05;4.57;;;1.90;;
29384;SDS011;16367;48.736;9.218;2022-11-20T08:23:08;6.22;;;2.10;;
29384;SDS011;16367;48.736;9.218;2022-11-20T08:25:11;5.75;;;2.58;;
29384;SDS011;16367;48.736;9.218;2022-11-20T08:27:15;7.18;;;2.00;;
29384;SDS011;16367;48.736;9.218;2022-11-20T08:29:18;5.22;;;2.40;;
29384;SDS011;16367;48.736;9.218;2022-11-20T08:31:21;5.07;;;1.98;;
29384;SDS011;16367;48.736;9.218;2022-11-20T08:33:25;5.90;;;2.55;;
29384;SDS011;16367;48.736;9.218;2022-11-20T08:35:28;4.40;;;2.05;;
29384;SDS011;16367;48.736;9.218;2022-11-20T08:37:34;5.63;;;2.53;;
29384;SDS011;16367;48.736;9.218;2022-11-20T08:39:38;5.65;;;2.50;;
29384;SDS011;16367;48.736;9.218;2022-11-20T08:41:41;4.57;;;2.22;;
29384;SDS011;16367;48.736;9.218;2022-11-20T08:43:45;5.68;;;2.70;;
29384;SDS011;16367;48.736;9.218;2022-11-20T08:45:48;5.15;;;2.08;;
29384;SDS011;16367;48.736;9.218;2022-11-20T08:47:51;4.35;;;1.63;;
29384;SDS011;16367;48.736;9.218;2022-11-20T08:49:53;5.40;;;2.42;;
29384;SDS011;16367;48.736;9.218;2022-11-20T08:51:56;5.82;;;2.63;;
29384;SDS011;16367;48.736;9.218;2022-11-20T08:53:59;4.60;;;1.75;;
29384;SDS011;16367;48.736;9.218;2022-11-20T08:56:02;4.38;;;2.00;;
29384;SDS011;16367;48.736;9.218;2022-11-20T08:58:05;4.18;;;1.42;;
29384;SDS011;16367;48.736;9.218;2022-11-20T09:00:10;5.72;;;2.08;;
29384;SDS011;16367;48.736;9.218;2022-11-20T09:02:14;5.43;;;1.92;;
29384;SDS011;16367;48.736;9.218;2022-11-20T09:04:16;5.53;;;1.83;;
29384;SDS011;16367;48.736;9.218;2022-11-20T09:06:19;4.55;;;1.98;;
29384;SDS011;16367;48.736;9.218;2022-11-20T09:08:22;7.03;;;1.73;;
29384;SDS011;16367;48.736;9.218;2022-11-20T09:10:25;3.75;;;1.75;;
29384;SDS011;16367;48.736;9.218;2022-11-20T09:12:28;4.95;;;2.15;;
29384;SDS011;16367;48.736;9.218;2022-11-20T09:14:31;4.47;;;1.85;;
29384;SDS011;16367;48.736;9.218;2022-11-20T09:16:36;4.90;;;1.80;;
29384;SDS011;16367;48.736;9.218;2022-11-20T09:18:38;3.67;;;1.48;;
29384;SDS011;16367;48.736;9.218;2022-11-20T09:20:41;4.05;;;1.63;;
29384;SDS011;16367;48.736;9.218;2022-11-20T09:22:44;4.10;;;1.88;;
29384;SDS011;16367;48.736;9.218;2022-11-20T09:24:47;4.07;;;1.52;;
29384;SDS011;16367;48.736;9.218;2022-11-20T09:26:50;5.28;;;2.00;;
29384;SDS011;16367;48.736;9.218;2022-11-20T09:28:53;4.68;;;1.50;;
29384;SDS011;16367;48.736;9.218;2022-11-20T09:30:58;3.72;;;1.20;;
29384;SDS011;16367;48.736;9.218;2022-11-20T09:33:04;4.57;;;1.55;;
29384;SDS011;16367;48.736;9.218;2022-11-20T09:35:08;2.75;;;1.08;;
29384;SDS011;16367;48.736;9.218;2022-11-20T09:37:12;3.03;;;1.10;;
29384;SDS011;16367;48.736;9.218;2022-11-20T09:39:14;3.25;;;1.10;;
29384;SDS011;16367;48.736;9.218;2022-11-20T09:41:27;3.33;;;1.10;;
29384;SDS011;16367;48.736;9.218;2022-11-20T09:43:41;2.70;;;0.85;;
29384;SDS011;16367;48.736;9.218;2022-11-20T09:45:55;2.88;;;1.10;;
29384;SDS011;16367;48.736;9.218;2022-11-20T09:48:08;2.88;;;1.10;;
29384;SDS011;16367;48.736;9.218;2022-11-20T09:50:23;2.58;;;0.80;;
29384;SDS011;16367;48.736;9.218;2022-11-20T09:52:37;2.55;;;1.00;;
29384;SDS011;16367;48.736;9.218;2022-11-20T09:54:48;2.78;;;0.80;;
29384;SDS011;16367;48.736;9.218;2022-11-20T09:56:53;2.22;;;0.70;;
29384;SDS011;16367;48.736;9.218;2022-11-20T09:58:59;2.42;;;0.80;;
29384;SDS011;16367;48.736;9.218;2022-11-20T10:01:09;2.88;;;0.90;;
29384;SDS011;16367;48.736;9.218;2022-11-20T10:03:16;2.38;;;0.85;;
29384;SDS011;16367;48.736;9.218;2022-11-20T10:05:27;2.17;;;0.77;;
29384;SDS011;16367;48.736;9.218;2022-11-20T10:07:34;2.17;;;0.75;;
29384;SDS011;16367;48.736;9.218;2022-11-20T10:09:43;1.85;;;0.60;;
29384;SDS011;16367;48.736;9.218;2022-11-20T10:11:57;3.20;;;0.73;;
29384;SDS011;16367;48.736;9.218;2022-11-20T10:14:13;2.83;;;1.25;;
29384;SDS011;16367;48.736;9.218;2022-11-20T10:16:22;2.15;;;0.65;;
29384;SDS011;16367;48.736;9.218;2022-11-20T10:18:37;2.45;;;0.80;;
29384;SDS011;16367;48.736;9.218;2022-11-20T10:20:52;1.95;;;0.70;;
29384;SDS011;16367;48.736;9.218;2022-11-20T10:23:05;2.58;;;0.80;;
29384;SDS011;16367;48.736;9.218;2022-11-20T10:25:27;2.60;;;1.00;;
29384;SDS011;16367;48.736;9.218;2022-11-20T10:30:12;2.20;;;0.73;;
29384;SDS011;16367;48.736;9.218;2022-11-20T10:32:18;2.47;;;0.90;;
29384;SDS011;16367;48.736;9.218;2022-11-20T10:34:26;3.33;;;1.20;;
29384;SDS011;16367;48.736;9.218;2022-11-20T10:36:34;4.07;;;0.98;;
29384;SDS011;16367;48.736;9.218;2022-11-20T10:38:42;3.10;;;1.00;;
29384;SDS011;16367;48.736;9.218;2022-11-20T10:40:48;2.95;;;0.93;;
29384;SDS011;16367;48.736;9.218;2022-11-20T10:42:55;2.47;;;0.73;;
29384;SDS011;16367;48.736;9.218;2022-11-20T10:45:02;2.65;;;0.90;;
29384;SDS011;16367;48.736;9.218;2022-11-20T10:47:14;2.65;;;1.00;;
29384;SDS011;16367;48.736;9.218;2022-11-20T10:49:18;3.50;;;1.00;;
29384;SDS011;16367;48.736;9.218;2022-11-20T10:51:30;3.83;;;1.05;;
29384;SDS011;16367;48.736;9.218;2022-11-20T10:53:44;3.17;;;1.17;;
29384;SDS011;16367;48.736;9.218;2022-11-20T10:55:53;3.22;;;1.00;;
29384;SDS011;16367;48.736;9.218;2022-11-20T10:58:01;3.20;;;0.98;;
29384;SDS011;16367;48.736;9.218;2022-11-20T11:00:12;3.05;;;0.82;;
29384;SDS011;16367;48.736;9.218;2022-11-20T11:02:19;3.65;;;0.90;;
29384;SDS011;16367;48.736;9.218;2022-11-20T11:04:28;2.70;;;1.00;;
29384;SDS011;16367;48.736;9.218;2022-11-20T11:06:40;6.03;;;0.93;;
29384;SDS011;16367;48.736;9.218;2022-11-20T11:08:49;3.22;;;1.00;;
29384;SDS011;16367;48.736;9.218;2022-11-20T11:10:56;3.50;;;1.23;;
29384;SDS011;16367;48.736;9.218;2022-11-20T11:13:02;3.10;;;1.10;;
29384;SDS011;16367;48.736;9.218;2022-11-20T11:15:11;2.97;;;0.95;;
29384;SDS011;16367;48.736;9.218;2022-11-20T11:17:20;3.75;;;1.30;;
29384;SDS011;16367;48.736;9.218;2022-11-20T11:19:28;3.30;;;1.13;;
29384;SDS011;16367;48.736;9.218;2022-11-20T11:21:30;3.90;;;1.33;;
29384;SDS011;16367;48.736;9.218;2022-11-20T11:23:35;3.78;;;1.35;;
29384;SDS011;16367;48.736;9.218;2022-11-20T11:25:40;3.72;;;1.35;;
29384;SDS011;16367;48.736;9.218;2022-11-20T11:27:45;2.95;;;1.13;;
29384;SDS011;16367;48.736;9.218;2022-11-20T11:29:48;5.38;;;1.50;;
29384;SDS011;16367;48.736;9.218;2022-11-20T11:31:51;3.60;;;1.42;;
29384;SDS011;16367;48.736;9.218;2022-11-20T11:34:03;4.03;;;1.63;;
29384;SDS011;16367;48.736;9.218;2022-11-20T11:36:15;4.25;;;1.55;;
29384;SDS011;16367;48.736;9.218;2022-11-20T11:38:21;4.75;;;1.33;;
29384;SDS011;16367;48.736;9.218;2022-11-20T11:40:33;3.90;;;1.45;;
29384;SDS011;16367;48.736;9.218;2022-11-20T11:42:41;4.35;;;1.42;;
29384;SDS011;16367;48.736;9.218;2022-11-20T11:44:45;3.63;;;1.48;;
29384;SDS011;16367;48.736;9.218;2022-11-20T11:47:08;3.08;;;1.00;;
29384;SDS011;16367;48.736;9.218;2022-11-20T11:49:20;4.38;;;1.25;;
29384;SDS011;16367;48.736;9.218;2022-11-20T11:51:24;3.10;;;1.23;;
29384;SDS011;16367;48.736;9.218;2022-11-20T11:53:30;3.80;;;1.17;;
29384;SDS011;16367;48.736;9.218;2022-11-20T11:55:45;3.60;;;1.10;;
29384;SDS011;16367;48.736;9.218;2022-11-20T11:57:54;4.50;;;1.70;;
29384;SDS011;16367;48.736;9.218;2022-11-20T12:00:03;5.03;;;1.45;;
29384;SDS011;16367;48.736;9.218;2022-11-20T12:02:12;6.00;;;1.38;;
29384;SDS011;16367;48.736;9.218;2022-11-20T12:04:25;4.35;;;1.20;;
29384;SDS011;16367;48.736;9.218;2022-11-20T12:06:43;4.70;;;1.30;;
29384;SDS011;16367;48.736;9.218;2022-11-20T12:08:50;4.35;;;1.70;;
29384;SDS011;16367;48.736;9.218;2022-11-20T12:10:58;5.28;;;1.50;;
29384;SDS011;16367;48.736;9.218;2022-11-20T12:13:09;5.43;;;1.35;;
29384;SDS011;16367;48.736;9.218;2022-11-20T12:15:26;4.25;;;1.45;;
29384;SDS011;16367;48.736;9.218;2022-11-20T12:17:32;3.53;;;1.33;;
29384;SDS011;16367;48.736;9.218;2022-11-20T12:19:35;3.33;;;1.20;;
29384;SDS011;16367;48.736;9.218;2022-11-20T12:21:40;2.72;;;1.20;;
29384;SDS011;16367;48.736;9.218;2022-11-20T12:24:05;3.83;;;0.90;;
29384;SDS011;16367;48.736;9.218;2022-11-20T12:26:31;4.55;;;1.30;;
29384;SDS011;16367;48.736;9.218;2022-11-20T12:28:49;5.45;;;1.10;;
29384;SDS011;16367;48.736;9.218;2022-11-20T12:31:13;3.90;;;1.00;;
29384;SDS011;16367;48.736;9.218;2022-11-20T12:33:45;3.03;;;0.90;;
29384;SDS011;16367;48.736;9.218;2022-11-20T12:35:59;4.90;;;1.10;;
29384;SDS011;16367;48.736;9.218;2022-11-20T12:38:20;3.97;;;1.00;;
29384;SDS011;16367;48.736;9.218;2022-11-20T12:40:35;2.67;;;0.90;;